Time;durP1;ratioP1;P1;durP2;ratioP2;P2;SDS_P1;SDS_P2;PMS_P1;PMS_P2;Temp;Humidity;BMP_temperature;BMP_pressure;BME280_temperature;BME280_humidity;BME280_pressure;Samples;Min_cycle;Max_cycle;Signal;HPM_P1;HPM_P2
2023/01/04 00:00:05;;;;;;;24.60;15.35;;;;;;;7.22;86.11;101374.75;1843704;77;20978;-94
2023/01/04 00:02:36;;;;;;;22.30;14.80;;;;;;;7.19;86.21;101370.95;1823051;77;20961;-96
2023/01/04 00:05:08;;;;;;;18.07;11.75;;;;;;;7.15;86.35;101365.44;1831768;76;20853;-95
2023/01/04 00:07:36;;;;;;;18.70;12.20;;;;;;;7.13;86.42;101375.52;1846540;76;21066;-96
2023/01/04 00:10:04;;;;;;;19.20;13.55;;;;;;;7.12;86.58;101372.07;1831750;77;20954;-95
2023/01/04 00:12:35;;;;;;;22.73;14.07;;;;;;;7.02;86.57;101358.92;1838851;76;20856;-94
2023/01/04 00:15:06;;;;;;;17.02;12.43;;;;;;;7.15;86.58;101375.87;1830957;76;21099;-93
2023/01/04 00:17:33;;;;;;;15.50;12.40;;;;;;;7.16;86.14;101379.33;1840619;77;21091;-94
2023/01/04 00:20:03;;;;;;;18.50;13.90;;;;;;;7.14;86.04;101383.77;1825641;77;21008;-94
2023/01/04 00:22:33;;;;;;;23.57;16.10;;;;;;;7.12;85.84;101389.48;1823093;77;21042;-94
2023/01/04 00:25:00;;;;;;;19.35;14.63;;;;;;;7.11;85.60;101386.45;1831347;76;21065;-95
2023/01/04 00:27:27;;;;;;;17.20;12.00;;;;;;;7.06;85.43;101390.06;1825317;77;21123;-94
2023/01/04 00:29:53;;;;;;;19.65;13.55;;;;;;;7.00;85.42;101389.41;1825315;77;21463;-94
2023/01/04 00:32:20;;;;;;;17.57;13.03;;;;;;;6.93;85.45;101397.05;1837988;77;20995;-93
2023/01/04 00:34:47;;;;;;;19.73;13.60;;;;;;;6.87;85.69;101390.71;1838479;77;20820;-91
2023/01/04 00:37:14;;;;;;;21.90;15.98;;;;;;;6.85;85.79;101388.18;1829875;76;20955;-94
2023/01/04 00:39:41;;;;;;;20.97;14.85;;;;;;;6.86;85.83;101389.87;1831455;76;21122;-93
2023/01/04 00:42:07;;;;;;;22.82;14.68;;;;;;;6.87;85.85;101383.77;1833217;76;20845;-91
2023/01/04 00:44:34;;;;;;;22.05;13.72;;;;;;;6.85;85.76;101386.41;1829962;77;20973;-92
2023/01/04 00:47:02;;;;;;;19.57;12.13;;;;;;;6.82;85.78;101386.95;1826840;77;21144;-93
2023/01/04 00:49:30;;;;;;;19.70;13.30;;;;;;;6.77;85.84;101386.26;1817297;77;21712;-94
2023/01/04 00:51:57;;;;;;;16.10;13.03;;;;;;;6.72;85.98;101385.10;1845100;77;21526;-91
2023/01/04 00:54:24;;;;;;;19.95;13.35;;;;;;;6.70;85.90;101382.14;1826671;77;20962;-93
2023/01/04 00:56:50;;;;;;;21.75;13.53;;;;;;;6.64;85.86;101380.11;1825988;77;20986;-92
2023/01/04 00:59:19;;;;;;;17.25;11.35;;;;;;;6.58;86.04;101371.20;1790896;77;20925;-95
2023/01/04 01:01:46;;;;;;;15.25;10.78;;;;;;;6.60;86.04;101381.56;1785990;76;20962;-96
2023/01/04 01:04:15;;;;;;;15.98;10.80;;;;;;;6.55;86.00;101381.70;1835494;77;21163;-92
2023/01/04 01:06:43;;;;;;;15.48;11.10;;;;;;;6.53;86.07;101371.78;1825659;76;20919;-93
2023/01/04 01:09:11;;;;;;;16.45;9.58;;;;;;;6.54;86.17;101367.45;1842007;77;21008;-93
2023/01/04 01:11:39;;;;;;;11.12;8.90;;;;;;;6.54;85.54;101373.50;1765192;78;20899;-94
2023/01/04 01:14:10;;;;;;;13.68;9.13;;;;;;;6.51;85.57;101376.19;1834970;76;20895;-93
2023/01/04 01:16:37;;;;;;;12.25;9.13;;;;;;;6.52;85.42;101379.66;1823334;76;21164;-96
2023/01/04 01:19:07;;;;;;;14.85;9.80;;;;;;;6.47;84.90;101378.51;1757411;79;21266;-94
2023/01/04 01:21:34;;;;;;;13.03;9.78;;;;;;;6.42;84.56;101374.74;1848081;77;21459;-94
2023/01/04 01:24:00;;;;;;;14.30;9.35;;;;;;;6.36;84.33;101368.41;1826350;76;20966;-94
2023/01/04 01:26:27;;;;;;;15.83;9.30;;;;;;;6.32;84.25;101373.30;1826811;76;21660;-94
2023/01/04 01:28:54;;;;;;;16.70;9.25;;;;;;;6.29;84.14;101376.02;1831747;76;21009;-94
2023/01/04 01:31:24;;;;;;;14.80;8.40;;;;;;;6.27;84.07;101372.59;1838911;77;21027;-95
2023/01/04 01:33:53;;;;;;;11.38;8.58;;;;;;;6.25;83.89;101377.00;1831409;77;21025;-93
2023/01/04 01:36:21;;;;;;;12.37;8.85;;;;;;;6.20;83.92;101377.56;1838517;77;20900;-94
2023/01/04 01:38:51;;;;;;;10.13;7.95;;;;;;;6.15;83.82;101380.30;1805215;77;20877;-95
2023/01/04 01:41:26;;;;;;;12.07;8.38;;;;;;;6.12;83.71;101386.91;1837544;76;21204;-94
2023/01/04 01:44:03;;;;;;;11.22;8.15;;;;;;;6.10;83.66;101387.86;1774287;79;20937;-94
2023/01/04 01:46:43;;;;;;;9.88;7.67;;;;;;;6.10;83.56;101383.95;1840017;77;20870;-94
2023/01/04 01:49:23;;;;;;;7.83;6.87;;;;;;;6.09;83.17;101382.23;1799295;78;20865;-94
2023/01/04 01:51:51;;;;;;;8.48;6.70;;;;;;;6.07;82.79;101382.30;1818574;77;20976;-94
2023/01/04 01:54:34;;;;;;;12.35;7.95;;;;;;;6.02;82.46;101384.16;1841210;77;21288;-93
2023/01/04 01:57:04;;;;;;;12.80;8.20;;;;;;;5.99;82.43;101379.05;1797153;78;21045;-96
2023/01/04 01:59:31;;;;;;;12.70;6.97;;;;;;;5.98;82.19;101376.03;1830307;76;20940;-93
2023/01/04 02:01:59;;;;;;;8.90;6.67;;;;;;;5.97;82.10;101379.55;1839745;77;20947;-96
2023/01/04 02:04:25;;;;;;;11.15;7.03;;;;;;;5.95;81.72;101379.58;1777797;79;20951;-94
2023/01/04 02:06:56;;;;;;;8.10;5.72;;;;;;;5.92;81.36;101379.64;1744762;80;21219;-91
2023/01/04 02:09:25;;;;;;;11.10;7.12;;;;;;;5.89;81.16;101373.66;1730980;80;20932;-91
2023/01/04 02:11:52;;;;;;;7.42;5.97;;;;;;;5.85;80.79;101375.94;1723274;81;20904;-94
2023/01/04 02:14:28;;;;;;;11.25;7.55;;;;;;;5.81;80.49;101374.73;1769230;79;20869;-96
2023/01/04 02:17:07;;;;;;;9.45;6.97;;;;;;;5.78;80.43;101369.63;1721711;81;20949;-93
2023/01/04 02:22:14;;;;;;;14.90;8.70;;;;;;;5.78;80.00;101364.42;1799666;77;24654;-92
2023/01/04 02:25:21;;;;;;;12.07;6.50;;;;;;;5.71;79.84;101367.22;1644600;84;20912;-92
2023/01/04 02:28:27;;;;;;;10.48;6.80;;;;;;;5.63;79.58;101366.15;1613000;89;21247;-94
2023/01/04 02:31:30;;;;;;;10.23;5.92;;;;;;;5.55;79.18;101371.55;1596636;86;21002;-96
2023/01/04 02:34:05;;;;;;;9.63;5.85;;;;;;;5.45;78.93;101371.41;1612527;86;21247;-95
2023/01/04 02:36:56;;;;;;;10.80;6.35;;;;;;;5.35;78.87;101363.42;1614215;86;21175;-94
2023/01/04 02:40:16;;;;;;;8.40;5.35;;;;;;;5.29;78.84;101362.28;1613949;86;21058;-94
2023/01/04 02:46:02;;;;;;;10.50;4.45;;;;;;;5.17;78.82;101374.70;1612010;87;20994;-94
2023/01/04 02:51:29;;;;;;;6.45;4.95;;;;;;;5.09;78.94;101372.77;1612704;87;21049;-95
2023/01/04 02:54:03;;;;;;;6.33;5.03;;;;;;;5.05;78.87;101373.73;1614566;85;21069;-93
2023/01/04 02:56:54;;;;;;;8.20;5.05;;;;;;;4.92;78.97;101362.77;1643831;85;21174;-95
2023/01/04 02:59:42;;;;;;;6.72;5.62;;;;;;;5.00;79.08;101379.47;1646291;83;20997;-96
2023/01/04 03:08:19;;;;;;;6.35;4.55;;;;;;;4.90;79.06;101383.20;1653440;86;21008;-94
2023/01/04 03:14:04;;;;;;;5.90;4.75;;;;;;;4.87;78.98;101385.43;1706595;84;21479;-93
2023/01/04 03:16:30;;;;;;;;;;;;;;;4.87;79.16;101388.03;1665351;86;21342;-95
2023/01/04 03:19:03;;;;;;;6.55;5.03;;;;;;;4.88;79.29;101386.28;1663134;86;20099;-94
2023/01/04 03:21:26;;;;;;;10.60;5.87;;;;;;;4.88;79.45;101388.88;1701435;82;21074;-96
2023/01/04 03:35:59;;;;;;;6.25;4.65;;;;;;;4.86;78.60;101400.59;1703515;82;20948;-94
2023/01/04 03:50:54;;;;;;;4.40;3.80;;;;;;;4.83;78.86;101395.94;1755884;79;20841;-94
2023/01/04 03:53:21;;;;;;;5.70;3.85;;;;;;;4.86;78.55;101399.75;1755660;80;21134;-94
2023/01/04 03:55:48;;;;;;;8.53;4.20;;;;;;;4.86;78.40;101398.45;1754408;82;20987;-94
2023/01/04 03:58:20;;;;;;;8.25;5.17;;;;;;;4.83;78.33;101395.94;1690542;82;21353;-93
2023/01/04 04:00:46;;;;;;;5.58;3.80;;;;;;;4.81;78.12;101402.91;1718331;83;20936;-93
2023/01/04 04:03:13;;;;;;;7.12;4.67;;;;;;;4.74;77.90;101399.15;1719736;80;20888;-95
2023/01/04 04:08:30;;;;;;;5.05;4.03;;;;;;;4.67;78.22;101407.10;1719121;80;20852;-95
2023/01/04 04:13:49;;;;;;;5.72;4.00;;;;;;;4.71;78.53;101404.42;1717657;82;21484;-92
2023/01/04 04:16:16;;;;;;;8.20;4.62;;;;;;;4.76;78.46;101405.63;1718010;81;20987;-95
2023/01/04 04:18:44;;;;;;;7.05;4.72;;;;;;;4.80;78.22;101402.48;1717939;82;20903;-96
2023/01/04 04:21:11;;;;;;;5.08;4.05;;;;;;;4.79;77.99;101404.23;1712149;80;21077;-94
2023/01/04 04:23:38;;;;;;;5.62;4.42;;;;;;;4.78;77.74;101399.95;1716948;80;20939;-94
2023/01/04 04:26:05;;;;;;;6.05;3.98;;;;;;;4.75;77.42;101401.30;1717687;80;20899;-93
2023/01/04 04:28:33;;;;;;;4.28;3.22;;;;;;;4.71;77.58;101405.73;1717722;82;21077;-95
2023/01/04 04:30:59;;;;;;;6.65;4.15;;;;;;;4.70;77.41;101405.75;1717744;83;21213;-96
2023/01/04 04:33:26;;;;;;;7.75;3.98;;;;;;;4.67;77.48;101398.89;1717657;80;21597;-96
2023/01/04 04:35:53;;;;;;;6.03;4.12;;;;;;;4.68;77.56;101406.23;1717693;83;20967;-95
2023/01/04 04:38:21;;;;;;;9.40;4.83;;;;;;;4.68;77.56;101401.03;1717763;83;20955;-95
2023/01/04 04:43:34;;;;;;;6.08;4.15;;;;;;;4.68;77.73;101399.28;1717713;83;21121;-94
2023/01/04 04:46:01;;;;;;;7.95;4.70;;;;;;;4.70;77.50;101401.41;1717532;83;20913;-96
2023/01/04 04:48:28;;;;;;;8.38;4.90;;;;;;;4.68;77.50;101398.44;1718371;80;20924;-94
2023/01/04 04:50:56;;;;;;;7.92;4.37;;;;;;;4.66;77.37;101390.67;1718815;81;20849;-95
2023/01/04 04:53:23;;;;;;;5.58;4.55;;;;;;;4.63;77.37;101395.95;1718124;82;20856;-95
2023/01/04 04:55:51;;;;;;;6.12;4.45;;;;;;;4.62;77.42;101401.16;1717749;83;21482;-95
2023/01/04 04:58:18;;;;;;;5.87;4.67;;;;;;;4.57;77.30;101396.92;1691139;80;20888;-95
2023/01/04 05:00:48;;;;;;;5.92;4.40;;;;;;;4.57;77.29;101396.08;1719794;80;20860;-95
2023/01/04 05:03:18;;;;;;;9.30;4.92;;;;;;;4.50;77.27;101392.77;1719619;80;20935;-92
2023/01/04 05:05:44;;;;;;;9.65;4.55;;;;;;;4.45;77.44;101398.52;1690559;83;20880;-96
2023/01/04 05:08:11;;;;;;;5.80;5.25;;;;;;;4.42;77.69;101400.31;1718082;82;21270;-95
2023/01/04 05:10:38;;;;;;;7.42;5.78;;;;;;;4.39;77.85;101395.20;1718436;83;20966;-95
2023/01/04 05:13:09;;;;;;;10.35;6.87;;;;;;;4.37;77.91;101392.63;1718269;83;20833;-94
2023/01/04 05:15:37;;;;;;;8.85;5.62;;;;;;;4.35;78.07;101395.24;1717654;83;20896;-95
2023/01/04 05:18:04;;;;;;;8.10;5.62;;;;;;;4.35;78.12;101400.89;1689099;82;20852;-94
2023/01/04 05:20:31;;;;;;;6.90;5.42;;;;;;;4.31;77.91;101400.12;1719145;80;21141;-96
2023/01/04 05:22:59;;;;;;;7.00;5.30;;;;;;;4.28;77.95;101399.31;1719411;82;20937;-92
2023/01/04 05:25:26;;;;;;;8.28;5.83;;;;;;;4.24;78.05;101412.80;1717784;80;20991;-94
2023/01/04 05:27:54;;;;;;;6.10;4.62;;;;;;;4.20;78.12;101407.25;1717683;80;20915;-95
2023/01/04 05:33:07;;;;;;;8.80;5.15;;;;;;;4.17;78.48;101406.48;1718239;83;21270;-94
2023/01/04 05:35:33;;;;;;;8.78;4.90;;;;;;;4.18;78.59;101406.45;1718359;80;20888;-95
2023/01/04 05:38:00;;;;;;;9.48;5.33;;;;;;;4.17;78.58;101401.28;1717675;80;20979;-96
2023/01/04 05:40:27;;;;;;;9.78;7.00;;;;;;;4.13;78.82;101400.48;1717696;82;20904;-95
2023/01/04 05:42:55;;;;;;;6.65;5.85;;;;;;;4.12;78.98;101402.23;1717833;80;20912;-95
2023/01/04 05:45:23;;;;;;;14.38;6.95;;;;;;;4.08;78.81;101404.92;1717664;82;21373;-95
2023/01/04 05:47:51;;;;;;;6.87;5.62;;;;;;;4.03;78.98;101412.80;1717841;83;21180;-94
2023/01/04 05:50:20;;;;;;;10.68;6.15;;;;;;;3.98;78.92;101419.84;1717944;82;20951;-95
2023/01/04 05:52:50;;;;;;;10.08;6.50;;;;;;;3.91;78.99;101421.70;1719562;80;20891;-95
2023/01/04 05:55:17;;;;;;;8.50;6.15;;;;;;;3.86;79.18;101421.36;1719849;80;20952;-96
2023/01/04 05:57:48;;;;;;;12.55;7.33;;;;;;;3.81;79.52;101425.34;1719806;80;21175;-93
2023/01/04 06:00:15;;;;;;;9.65;6.45;;;;;;;3.80;79.76;101431.42;1719248;83;20939;-95
2023/01/04 06:02:43;;;;;;;7.58;5.97;;;;;;;3.82;79.98;101421.00;1719463;80;20948;-94
2023/01/04 06:05:14;;;;;;;8.30;6.83;;;;;;;3.84;80.03;101427.02;1719655;80;21038;-94
2023/01/04 06:07:42;;;;;;;10.90;7.20;;;;;;;3.85;80.09;101436.08;1719896;80;20959;-94
2023/01/04 06:10:13;;;;;;;11.45;6.95;;;;;;;3.84;80.04;101430.45;1719314;80;21074;-96
2023/01/04 06:12:41;;;;;;;7.90;6.35;;;;;;;3.83;80.10;101433.95;1755700;79;20818;-92
2023/01/04 06:15:10;;;;;;;7.17;6.00;;;;;;;3.78;80.18;101437.08;1755817;80;20987;-93
2023/01/04 06:17:38;;;;;;;10.95;6.10;;;;;;;3.76;80.38;101438.84;1755930;79;20971;-94
2023/01/04 06:20:09;;;;;;;12.75;7.25;;;;;;;3.73;80.49;101444.95;1712277;82;20920;-93
2023/01/04 06:22:39;;;;;;;9.35;6.40;;;;;;;3.72;80.63;101445.82;1716719;80;21248;-94
2023/01/04 06:25:10;;;;;;;10.08;6.08;;;;;;;3.76;80.72;101448.34;1711919;81;20900;-95
2023/01/04 06:27:44;;;;;;;9.23;5.95;;;;;;;3.78;80.82;101455.66;1747333;81;20849;-93
2023/01/04 06:30:19;;;;;;;10.20;6.42;;;;;;;3.79;80.85;101459.98;1690619;81;20861;-93
2023/01/04 06:32:47;;;;;;;13.48;7.15;;;;;;;3.80;80.89;101453.89;1708145;81;20925;-93
2023/01/04 06:35:14;;;;;;;9.50;6.83;;;;;;;3.81;80.87;101447.39;1709777;81;21253;-96
2023/01/04 06:37:44;;;;;;;10.23;6.17;;;;;;;3.81;80.85;101456.47;1710775;81;20873;-96
2023/01/04 06:40:15;;;;;;;11.08;6.45;;;;;;;3.79;80.80;101462.12;1711784;81;20967;-95
2023/01/04 06:42:45;;;;;;;10.13;6.10;;;;;;;3.81;80.75;101455.62;1711882;81;21011;-96
2023/01/04 06:45:15;;;;;;;8.83;6.95;;;;;;;3.83;80.81;101457.75;1708258;81;20834;-95
2023/01/04 06:47:48;;;;;;;7.70;5.70;;;;;;;3.86;80.84;101465.47;1711351;81;21259;-96
2023/01/04 06:50:19;;;;;;;9.43;6.53;;;;;;;3.87;80.72;101471.94;1704574;84;21622;-96
2023/01/04 06:52:46;;;;;;;9.45;6.10;;;;;;;3.87;80.81;101464.15;1703842;83;20905;-96
2023/01/04 06:55:17;;;;;;;8.13;5.58;;;;;;;3.92;80.72;101467.95;1680283;84;21011;-93
2023/01/04 06:57:45;;;;;;;15.78;7.62;;;;;;;3.93;80.62;101478.31;1703278;83;20991;-96
2023/01/04 07:00:20;;;;;;;12.30;6.50;;;;;;;3.94;80.62;101481.31;1693555;83;21089;-96
2023/01/04 07:03:11;;;;;;;9.35;5.67;;;;;;;4.00;80.51;101482.06;1681833;84;21496;-96
2023/01/04 07:05:36;;;;;;;7.85;5.35;;;;;;;4.09;80.22;101490.55;1703717;84;20893;-95
2023/01/04 07:08:13;;;;;;;6.25;4.62;;;;;;;4.15;79.92;101492.16;1705544;82;21034;-96
2023/01/04 07:10:42;;;;;;;6.95;4.83;;;;;;;4.19;79.61;101492.97;1705160;84;20884;-96
2023/01/04 07:13:10;;;;;;;6.87;4.58;;;;;;;4.22;79.51;101487.25;1705925;82;21534;-96
2023/01/04 07:29:32;;;;;;;8.30;4.30;;;;;;;4.17;78.39;101492.14;1476719;94;21084;-94
2023/01/04 07:32:32;;;;;;;9.10;5.95;;;;;;;4.14;78.53;101490.47;1456801;97;21149;-95
2023/01/04 07:35:57;;;;;;;7.53;4.80;;;;;;;4.13;78.70;101490.88;1406247;101;21457;-95
2023/01/04 07:42:20;;;;;;;;;;;;;;;;;;;;;
2023/01/04 07:45:45;;;;;;;6.87;4.15;;;;;;;4.09;77.96;101498.76;1357815;99;20995;-94
2023/01/04 07:56:07;;;;;;;5.40;4.28;;;;;;;4.12;77.99;101502.61;1319258;103;21141;-96
2023/01/04 08:07:31;;;;;;;7.70;4.45;;;;;;;4.33;77.75;101506.52;1266385;108;21207;-94
2023/01/04 08:10:16;;;;;;;4.65;3.55;;;;;;;4.41;77.60;101511.58;1282529;110;21222;-95
2023/01/04 08:16:02;;;;;;;;;;;;;;;;;;;;;
2023/01/04 08:18:37;;;;;;;9.25;4.37;;;;;;;4.54;76.77;101523.43;1395548;98;21074;-96
2023/01/04 08:21:34;;;;;;;6.92;3.55;;;;;;;4.58;76.53;101521.19;1407162;96;21210;-95
2023/01/04 08:24:10;;;;;;;3.50;3.20;;;;;;;4.60;75.96;101520.69;1396559;97;21055;-95
2023/01/04 08:36:46;;;;;;;5.10;2.98;;;;;;;4.61;74.19;101515.06;1459611;93;21066;-96
2023/01/04 08:43:42;;;;;;;5.53;3.30;;;;;;;4.66;74.09;101512.77;1413631;91;21277;-96
2023/01/04 08:54:57;;;;;;;4.00;2.58;;;;;;;4.84;73.59;101488.58;1430520;98;21053;-95
2023/01/04 09:18:36;;;;;;;3.37;2.67;;;;;;;5.06;72.18;101491.55;1312665;105;21178;-96
2023/01/04 09:21:12;;;;;;;2.52;2.00;;;;;;;5.12;72.08;101497.47;1310035;108;21088;-96
2023/01/04 09:23:43;;;;;;;2.52;2.33;;;;;;;5.15;71.80;101492.19;1311802;105;21123;-96
2023/01/04 09:26:36;;;;;;;2.47;2.17;;;;;;;5.21;71.54;101489.90;1329952;103;21101;-96
2023/01/04 09:29:43;;;;;;;;;;;;;;;;;;;;;
2023/01/04 09:32:09;;;;;;;7.85;2.40;;;;;;;5.27;70.29;101483.26;1270483;108;21103;-96
2023/01/04 09:34:45;;;;;;;2.87;2.10;;;;;;;5.23;70.09;101473.81;1274726;109;21123;-95
2023/01/04 09:37:41;;;;;;;2.25;2.05;;;;;;;5.20;69.85;101471.27;1271355;106;21866;-96
2023/01/04 09:51:42;;;;;;;1.80;1.70;;;;;;;5.19;69.19;101460.48;1282992;109;21287;-96
2023/01/04 09:54:34;;;;;;;2.55;1.77;;;;;;;5.21;69.10;101461.75;1301896;103;21096;-96
2023/01/04 10:07:02;;;;;;;2.05;1.75;;;;;;;5.34;68.00;101460.11;1348516;102;21023;-96
2023/01/04 10:09:37;;;;;;;1.22;1.20;;;;;;;5.38;67.99;101449.16;1350066;103;21180;-96
2023/01/04 10:12:52;;;;;;;4.63;2.50;;;;;;;5.40;67.79;101457.36;1324048;100;21478;31
2023/01/04 10:19:51;;;;;;;2.58;1.70;;;;;;;5.45;67.43;101457.24;1348483;103;21786;-95
2023/01/04 10:22:42;;;;;;;2.67;1.42;;;;;;;5.42;67.24;101449.50;1354763;104;21122;-96
2023/01/04 10:25:27;;;;;;;1.92;1.20;;;;;;;5.41;67.17;101447.80;1353358;104;21190;-95
2023/01/04 10:28:19;;;;;;;2.35;1.80;;;;;;;5.42;67.13;101446.89;1320204;106;21057;-96
2023/01/04 10:31:38;;;;;;;1.82;1.50;;;;;;;5.46;67.00;101453.73;1314685;102;21546;-94
2023/01/04 10:34:52;;;;;;;1.47;1.32;;;;;;;5.53;66.49;101442.72;1329469;104;21573;-94
2023/01/04 10:37:40;;;;;;;1.57;1.12;;;;;;;5.58;65.94;101445.62;1326728;107;21122;-94
2023/01/04 10:40:26;;;;;;;3.92;1.32;;;;;;;5.61;66.01;101444.69;1326472;104;21613;-93
2023/01/04 10:43:19;;;;;;;2.00;1.27;;;;;;;5.68;65.93;101449.29;1319321;105;21213;-95
2023/01/04 10:46:22;;;;;;;;;;;;;;;;;;;;;
2023/01/04 10:49:02;;;;;;;4.65;2.40;;;;;;;5.73;65.69;101445.66;1356561;104;21038;-95
2023/01/04 10:51:45;;;;;;;1.72;1.55;;;;;;;5.77;65.63;101458.99;1363402;104;21034;-96
2023/01/04 10:54:55;;;;;;;;;;;;;;;;;;;;;
2023/01/04 10:57:35;;;;;;;2.20;1.52;;;;;;;5.75;65.58;101450.37;1362979;102;21157;-95
2023/01/04 11:00:12;;;;;;;6.53;3.90;;;;;;;5.76;65.88;101451.25;1362157;102;21042;-96
2023/01/04 11:02:49;;;;;;;9.43;5.35;;;;;;;5.76;66.22;101452.09;1363850;102;21001;-96
2023/01/04 11:05:33;;;;;;;4.50;2.58;;;;;;;5.80;66.41;101457.63;1378023;101;21054;-96
2023/01/04 11:08:13;;;;;;;2.55;1.95;;;;;;;5.86;66.33;101458.35;1390292;101;21463;-95
2023/01/04 11:10:46;;;;;;;3.12;2.77;;;;;;;5.87;65.53;101453.54;1415737;99;20946;-95
2023/01/04 11:13:13;;;;;;;3.62;1.85;;;;;;;5.86;65.23;101454.45;1457652;94;21374;-96
2023/01/04 11:15:44;;;;;;;2.37;1.57;;;;;;;5.86;64.95;101452.69;1519062;92;21008;-96
2023/01/04 11:18:18;;;;;;;2.47;1.65;;;;;;;5.87;64.79;101449.22;1483735;92;21108;-96
2023/01/04 11:20:51;;;;;;;2.20;0.88;;;;;;;5.87;64.80;101450.52;1520111;92;21004;-96
2023/01/04 11:23:19;;;;;;;1.50;1.32;;;;;;;5.89;64.39;101449.15;1501983;92;21497;-94
2023/01/04 11:25:55;;;;;;;1.47;1.37;;;;;;;5.90;64.58;101454.32;1519973;92;21470;-93
2023/01/04 11:28:41;;;;;;;1.30;1.20;;;;;;;5.90;64.59;101450.42;1533750;89;20907;-93
2023/01/04 11:31:33;;;;;;;6.25;1.55;;;;;;;5.88;64.53;101452.66;1572228;89;21017;-94
2023/01/04 11:34:04;;;;;;;2.77;1.20;;;;;;;5.84;64.62;101453.63;1576157;89;20909;-94
2023/01/04 11:36:37;;;;;;;4.42;2.17;;;;;;;5.77;64.60;101458.99;1558469;91;20917;-94
2023/01/04 11:39:21;;;;;;;2.30;1.30;;;;;;;5.74;64.90;101456.94;1576162;90;21089;-94
2023/01/04 11:42:03;;;;;;;3.20;1.02;;;;;;;5.71;64.96;101456.55;1572566;90;21004;-96
2023/01/04 11:44:35;;;;;;;1.35;1.02;;;;;;;5.68;64.57;101451.89;1572490;89;21088;-95
2023/01/04 11:47:29;;;;;;;3.35;1.92;;;;;;;5.66;64.67;101451.92;1597177;85;20936;-95
2023/01/04 11:50:05;;;;;;;4.83;1.17;;;;;;;5.68;64.87;101452.73;1583219;89;20882;-96
2023/01/04 11:52:36;;;;;;;1.52;1.40;;;;;;;5.70;65.12;101453.55;1580327;89;20886;-95
2023/01/04 11:55:27;;;;;;;4.03;2.08;;;;;;;5.71;64.81;101459.16;1579381;87;21044;-92
2023/01/04 11:58:14;;;;;;;2.25;1.52;;;;;;;5.72;64.39;101459.58;1582660;89;20937;-95
2023/01/04 12:00:53;;;;;;;;;;;;;;;5.72;64.41;101458.73;1585134;88;20966;-94
2023/01/04 12:03:31;;;;;;;5.33;1.52;;;;;;;5.71;64.34;101457.00;1661141;85;20092;-95
2023/01/04 12:05:58;;;;;;;3.27;1.32;;;;;;;5.69;64.55;101459.67;1660370;85;21151;-94
2023/01/04 12:08:41;;;;;;;4.22;1.10;;;;;;;5.69;64.79;101468.77;1639030;85;21049;-92
2023/01/04 12:11:34;;;;;;;0.80;0.75;;;;;;;5.68;64.01;101467.50;1624283;85;20995;-96
2023/01/04 12:14:08;;;;;;;1.20;1.05;;;;;;;5.60;63.86;101468.98;1670306;82;20944;-96
2023/01/04 12:16:59;;;;;;;1.37;0.95;;;;;;;5.56;64.00;101468.68;1711191;82;21008;-96
2023/01/04 12:19:30;;;;;;;1.00;0.80;;;;;;;5.55;63.80;101476.91;1734348;81;21540;-96
2023/01/04 12:21:59;;;;;;;4.17;1.02;;;;;;;5.53;63.46;101476.55;1734850;81;20992;-96
2023/01/04 12:24:33;;;;;;;2.15;0.72;;;;;;;5.52;63.66;101476.16;1710801;82;20960;-96
2023/01/04 12:27:16;;;;;;;0.68;0.68;;;;;;;5.50;63.63;101480.08;1734925;81;20956;-96
2023/01/04 12:30:00;;;;;;;1.85;0.80;;;;;;;5.52;63.48;101482.66;1735218;81;21008;-95
2023/01/04 12:32:33;;;;;;;3.15;0.75;;;;;;;5.54;63.35;101487.37;1734399;81;21540;-94
2023/01/04 12:35:00;;;;;;;2.98;0.80;;;;;;;5.54;63.23;101478.27;1734774;81;21402;-95
2023/01/04 12:37:47;;;;;;;0.90;0.57;;;;;;;5.55;63.13;101476.06;1735080;81;20917;-96
2023/01/04 17:31:57;;;;;;;3.83;2.75;;;;;;;4.55;65.53;101542.02;1822247;77;21424;-91
2023/01/04 17:34:31;;;;;;;3.50;3.02;;;;;;;4.53;65.66;101547.68;1827157;77;20872;-92
2023/01/04 17:36:57;;;;;;;3.55;2.70;;;;;;;4.52;65.60;101549.42;1816887;77;20973;-91
2023/01/04 17:39:25;;;;;;;3.40;2.60;;;;;;;4.51;65.21;101551.63;1811537;77;20955;-91
2023/01/04 17:41:55;;;;;;;3.95;3.17;;;;;;;4.50;65.39;101546.45;1810957;77;20983;-92
2023/01/04 17:44:22;;;;;;;4.60;2.77;;;;;;;4.49;65.07;101546.91;1826569;77;20931;-90
2023/01/04 17:46:48;;;;;;;4.12;3.40;;;;;;;4.50;65.04;101544.70;1820859;77;21232;-92
2023/01/04 17:49:15;;;;;;;3.52;3.20;;;;;;;4.51;64.76;101539.94;1820559;77;21338;-91
2023/01/04 17:51:41;;;;;;;3.98;3.00;;;;;;;4.51;64.58;101539.06;1840055;77;20931;-90
2023/01/04 17:54:09;;;;;;;3.58;2.77;;;;;;;4.48;64.42;101534.78;1817605;77;20915;-90
2023/01/04 17:56:38;;;;;;;5.53;2.95;;;;;;;4.47;64.60;101533.09;1830324;77;20872;-90
2023/01/04 17:59:07;;;;;;;3.87;3.20;;;;;;;4.48;64.38;101537.38;1820880;77;21082;-91
2023/01/04 18:01:34;;;;;;;6.50;3.77;;;;;;;4.48;64.28;101529.59;1823408;77;20987;-89
2023/01/04 18:04:02;;;;;;;40.50;15.35;;;;;;;4.49;64.06;101531.73;1817148;77;20944;-89
2023/01/04 18:06:32;;;;;;;14.15;6.08;;;;;;;4.46;63.95;101535.70;1811925;77;21057;-91
2023/01/04 18:09:00;;;;;;;11.12;5.05;;;;;;;4.44;64.05;101534.42;1830979;77;21428;-91
2023/01/04 18:11:27;;;;;;;8.10;4.90;;;;;;;4.43;63.74;101540.97;1807482;77;21245;-92
2023/01/04 18:13:54;;;;;;;5.25;3.62;;;;;;;4.42;63.71;101541.84;1818841;77;20906;-91
2023/01/04 18:16:25;;;;;;;10.25;6.47;;;;;;;4.42;63.50;101544.44;1817290;77;20856;-90
2023/01/04 18:19:00;;;;;;;8.88;4.55;;;;;;;4.43;63.42;101550.06;1821966;77;20935;-91
2023/01/04 18:21:31;;;;;;;4.80;3.72;;;;;;;4.42;63.04;101545.28;1724880;81;20991;-91
2023/01/04 18:24:00;;;;;;;7.08;3.55;;;;;;;4.40;63.28;101543.16;1747179;80;21935;-91
2023/01/04 18:26:27;;;;;;;4.33;3.10;;;;;;;4.40;63.28;101541.02;1772486;79;20856;-91
2023/01/04 18:28:53;;;;;;;2.60;2.22;;;;;;;4.40;63.36;101547.05;1750237;80;20900;-91
2023/01/04 18:31:21;;;;;;;4.42;2.58;;;;;;;4.37;63.29;101540.64;1745416;80;21039;-92
2023/01/04 18:33:53;;;;;;;3.17;2.15;;;;;;;4.38;63.68;101547.97;1742313;80;20935;-92
2023/01/04 18:36:22;;;;;;;4.03;3.60;;;;;;;4.36;63.48;101548.87;1752299;80;21050;-91
2023/01/04 18:38:52;;;;;;;4.37;4.00;;;;;;;4.33;63.51;101541.58;1783079;79;20996;-89
2023/01/04 18:41:18;;;;;;;6.62;4.20;;;;;;;4.35;63.61;101537.20;1800499;79;20924;-91
2023/01/04 18:43:51;;;;;;;6.15;3.02;;;;;;;4.35;63.70;101532.86;1815502;77;21431;-91
2023/01/04 18:46:18;;;;;;;2.95;2.67;;;;;;;4.37;63.68;101528.95;1813454;77;21018;-92
2023/01/04 18:48:53;;;;;;;4.83;2.65;;;;;;;4.38;63.70;101529.38;1819671;77;21787;-89
2023/01/04 18:51:22;;;;;;;3.33;2.70;;;;;;;4.38;63.59;101525.91;1839646;77;21062;-89
2023/01/04 18:53:51;;;;;;;3.60;2.90;;;;;;;4.36;63.67;101525.50;1786401;77;20963;-92
2023/01/04 18:56:20;;;;;;;3.20;2.90;;;;;;;4.35;63.67;101526.83;1821696;77;21042;-90
2023/01/04 18:58:50;;;;;;;5.95;2.98;;;;;;;4.35;63.71;101530.27;1811325;77;20995;-93
2023/01/04 19:01:18;;;;;;;4.35;2.55;;;;;;;4.35;63.83;101519.03;1821238;77;21364;-92
2023/01/04 19:03:46;;;;;;;5.80;3.45;;;;;;;4.33;63.77;101516.91;1818924;77;20884;-91
2023/01/04 19:06:16;;;;;;;8.10;4.78;;;;;;;4.31;64.04;101516.95;1824024;77;21082;-92
2023/01/04 19:08:46;;;;;;;5.35;3.83;;;;;;;4.32;64.26;101524.30;1819913;77;20907;-91
2023/01/04 19:11:13;;;;;;;3.00;2.70;;;;;;;4.30;64.39;101519.13;1807582;77;20923;-92
2023/01/04 19:13:40;;;;;;;7.17;3.47;;;;;;;4.29;64.48;101521.73;1812503;77;21320;-92
2023/01/04 19:16:11;;;;;;;3.72;3.17;;;;;;;4.28;64.65;101523.94;1812991;77;21475;-92
2023/01/04 19:18:38;;;;;;;3.45;2.60;;;;;;;4.25;64.69;101518.81;1818143;77;20891;-92
2023/01/04 19:21:08;;;;;;;3.10;2.80;;;;;;;4.23;64.60;101520.59;1825235;77;20853;-90
2023/01/04 19:23:36;;;;;;;7.97;4.42;;;;;;;4.21;64.98;101527.55;1816755;77;21688;-91
2023/01/04 19:26:07;;;;;;;5.55;3.80;;;;;;;4.22;65.16;101533.14;1828085;77;22413;-91
2023/01/04 19:28:33;;;;;;;5.28;4.17;;;;;;;4.24;65.40;101528.33;1823978;77;20975;-92
2023/01/04 19:31:06;;;;;;;10.08;5.78;;;;;;;4.29;65.45;101532.13;1808646;77;21500;-92
2023/01/04 19:33:34;;;;;;;11.35;4.83;;;;;;;4.31;65.50;101527.77;1806106;77;20875;-91
2023/01/04 19:36:01;;;;;;;13.78;6.80;;;;;;;4.30;65.71;101524.31;1820796;77;20951;-92
2023/01/04 19:38:29;;;;;;;11.85;6.25;;;;;;;4.30;65.87;101526.06;1805847;77;21305;-91